sensor_id;sensor_type;location;lat;lon;timestamp;temperature;humidity
38500;DHT22;24269;51.894;4.622;2023-02-28T00:00:49;1.50;99.90
38500;DHT22;24269;51.894;4.622;2023-02-28T00:03:15;1.50;99.90
38500;DHT22;24269;51.894;4.622;2023-02-28T00:05:41;1.40;99.90
38500;DHT22;24269;51.894;4.622;2023-02-28T00:08:07;1.40;99.90
38500;DHT22;24269;51.894;4.622;2023-02-28T00:10:33;1.40;99.90
38500;DHT22;24269;51.894;4.622;2023-02-28T00:13:03;1.40;99.90
38500;DHT22;24269;51.894;4.622;2023-02-28T00:15:29;1.40;99.90
38500;DHT22;24269;51.894;4.622;2023-02-28T00:17:55;1.40;99.90
38500;DHT22;24269;51.894;4.622;2023-02-28T00:20:20;1.40;99.90
38500;DHT22;24269;51.894;4.622;2023-02-28T00:22:49;1.40;99.90
38500;DHT22;24269;51.894;4.622;2023-02-28T00:25:17;1.40;99.90
38500;DHT22;24269;51.894;4.622;2023-02-28T00:27:44;1.30;99.90
38500;DHT22;24269;51.894;4.622;2023-02-28T00:30:16;1.30;99.90
38500;DHT22;24269;51.894;4.622;2023-02-28T00:32:43;1.40;99.90
38500;DHT22;24269;51.894;4.622;2023-02-28T00:35:09;1.40;99.90
38500;DHT22;24269;51.894;4.622;2023-02-28T00:37:35;1.50;99.90
38500;DHT22;24269;51.894;4.622;2023-02-28T00:40:01;1.60;99.90
38500;DHT22;24269;51.894;4.622;2023-02-28T00:42:30;1.60;99.90
38500;DHT22;24269;51.894;4.622;2023-02-28T00:44:55;1.70;99.90
38500;DHT22;24269;51.894;4.622;2023-02-28T00:47:21;1.70;99.90
38500;DHT22;24269;51.894;4.622;2023-02-28T00:49:47;1.80;99.90
38500;DHT22;24269;51.894;4.622;2023-02-28T00:52:12;1.80;99.90
38500;DHT22;24269;51.894;4.622;2023-02-28T00:54:38;1.90;99.90
38500;DHT22;24269;51.894;4.622;2023-02-28T00:57:04;1.90;99.90
38500;DHT22;24269;51.894;4.622;2023-02-28T00:59:29;2.00;99.90
38500;DHT22;24269;51.894;4.622;2023-02-28T01:01:55;2.00;99.90
38500;DHT22;24269;51.894;4.622;2023-02-28T01:04:20;2.10;99.90
38500;DHT22;24269;51.894;4.622;2023-02-28T01:06:46;2.10;99.90
38500;DHT22;24269;51.894;4.622;2023-02-28T01:09:12;2.20;99.90
38500;DHT22;24269;51.894;4.622;2023-02-28T01:11:38;2.20;99.90
38500;DHT22;24269;51.894;4.622;2023-02-28T01:14:06;2.30;99.90
38500;DHT22;24269;51.894;4.622;2023-02-28T01:16:32;2.30;99.90
38500;DHT22;24269;51.894;4.622;2023-02-28T01:18:57;2.30;99.90
38500;DHT22;24269;51.894;4.622;2023-02-28T01:21:23;2.40;99.90
38500;DHT22;24269;51.894;4.622;2023-02-28T01:23:49;2.40;99.90
38500;DHT22;24269;51.894;4.622;2023-02-28T01:28:42;2.50;99.90
38500;DHT22;24269;51.894;4.622;2023-02-28T01:31:09;2.50;99.90
38500;DHT22;24269;51.894;4.622;2023-02-28T01:33:35;2.50;99.90
38500;DHT22;24269;51.894;4.622;2023-02-28T01:36:04;2.60;99.90
38500;DHT22;24269;51.894;4.622;2023-02-28T01:38:30;2.60;99.90
38500;DHT22;24269;51.894;4.622;2023-02-28T01:40:55;2.60;99.90
38500;DHT22;24269;51.894;4.622;2023-02-28T01:43:25;2.60;99.90
38500;DHT22;24269;51.894;4.622;2023-02-28T01:45:55;2.60;99.90
38500;DHT22;24269;51.894;4.622;2023-02-28T01:48:30;2.70;99.90
38500;DHT22;24269;51.894;4.622;2023-02-28T01:51:00;2.70;99.90
38500;DHT22;24269;51.894;4.622;2023-02-28T01:53:31;2.70;99.90
38500;DHT22;24269;51.894;4.622;2023-02-28T01:55:58;2.80;99.90
38500;DHT22;24269;51.894;4.622;2023-02-28T01:58:24;2.80;99.90
38500;DHT22;24269;51.894;4.622;2023-02-28T02:00:50;2.80;99.90
38500;DHT22;24269;51.894;4.622;2023-02-28T02:03:17;2.80;99.90
38500;DHT22;24269;51.894;4.622;2023-02-28T02:05:46;2.80;99.90
38500;DHT22;24269;51.894;4.622;2023-02-28T02:08:24;2.80;99.90
38500;DHT22;24269;51.894;4.622;2023-02-28T02:10:54;2.90;99.90
38500;DHT22;24269;51.894;4.622;2023-02-28T02:16:48;2.90;99.90
38500;DHT22;24269;51.894;4.622;2023-02-28T02:30:46;3.00;99.90
38500;DHT22;24269;51.894;4.622;2023-02-28T02:39:02;3.00;99.90
38500;DHT22;24269;51.894;4.622;2023-02-28T02:41:42;3.00;99.90
38500;DHT22;24269;51.894;4.622;2023-02-28T02:44:23;3.00;99.90
38500;DHT22;24269;51.894;4.622;2023-02-28T02:46:53;3.00;99.90
38500;DHT22;24269;51.894;4.622;2023-02-28T02:49:25;3.10;99.90
38500;DHT22;24269;51.894;4.622;2023-02-28T02:51:53;3.10;99.90
38500;DHT22;24269;51.894;4.622;2023-02-28T02:54:22;3.10;99.90
38500;DHT22;24269;51.894;4.622;2023-02-28T02:56:49;3.10;99.90
38500;DHT22;24269;51.894;4.622;2023-02-28T02:59:19;3.10;99.90
38500;DHT22;24269;51.894;4.622;2023-02-28T03:01:50;3.10;99.90
38500;DHT22;24269;51.894;4.622;2023-02-28T03:04:19;3.10;99.90
38500;DHT22;24269;51.894;4.622;2023-02-28T03:06:46;3.10;99.90
38500;DHT22;24269;51.894;4.622;2023-02-28T03:09:12;3.10;99.90
38500;DHT22;24269;51.894;4.622;2023-02-28T03:11:38;3.10;99.90
38500;DHT22;24269;51.894;4.622;2023-02-28T03:36:26;3.20;99.90
38500;DHT22;24269;51.894;4.622;2023-02-28T03:39:17;3.20;99.90
38500;DHT22;24269;51.894;4.622;2023-02-28T03:41:59;3.20;99.90
38500;DHT22;24269;51.894;4.622;2023-02-28T03:44:48;3.20;99.90
38500;DHT22;24269;51.894;4.622;2023-02-28T03:47:28;3.20;99.90
38500;DHT22;24269;51.894;4.622;2023-02-28T03:49:59;3.20;99.90
38500;DHT22;24269;51.894;4.622;2023-02-28T03:52:30;3.20;99.90
38500;DHT22;24269;51.894;4.622;2023-02-28T03:55:01;3.30;99.90
38500;DHT22;24269;51.894;4.622;2023-02-28T03:57:39;3.30;99.90
38500;DHT22;24269;51.894;4.622;2023-02-28T04:00:18;3.30;99.90
38500;DHT22;24269;51.894;4.622;2023-02-28T04:02:48;3.30;99.90
38500;DHT22;24269;51.894;4.622;2023-02-28T04:05:21;3.30;99.90
38500;DHT22;24269;51.894;4.622;2023-02-28T04:07:47;3.30;99.90
38500;DHT22;24269;51.894;4.622;2023-02-28T04:10:15;3.30;99.90
38500;DHT22;24269;51.894;4.622;2023-02-28T04:12:41;3.30;99.90
38500;DHT22;24269;51.894;4.622;2023-02-28T04:15:07;3.30;99.90
38500;DHT22;24269;51.894;4.622;2023-02-28T04:17:33;3.30;99.90
38500;DHT22;24269;51.894;4.622;2023-02-28T04:19:58;3.30;99.90
38500;DHT22;24269;51.894;4.622;2023-02-28T04:22:24;3.30;99.90
38500;DHT22;24269;51.894;4.622;2023-02-28T04:24:52;3.30;99.90
38500;DHT22;24269;51.894;4.622;2023-02-28T04:27:20;3.30;99.90
38500;DHT22;24269;51.894;4.622;2023-02-28T04:29:45;3.30;99.90
38500;DHT22;24269;51.894;4.622;2023-02-28T04:32:11;3.30;99.90
38500;DHT22;24269;51.894;4.622;2023-02-28T04:34:37;3.30;99.90
38500;DHT22;24269;51.894;4.622;2023-02-28T04:37:03;3.30;99.90
38500;DHT22;24269;51.894;4.622;2023-02-28T04:39:29;3.30;99.90
38500;DHT22;24269;51.894;4.622;2023-02-28T04:41:55;3.40;99.90
38500;DHT22;24269;51.894;4.622;2023-02-28T04:44:22;3.30;99.90
38500;DHT22;24269;51.894;4.622;2023-02-28T04:46:48;3.30;99.90
38500;DHT22;24269;51.894;4.622;2023-02-28T04:49:14;3.40;99.90
38500;DHT22;24269;51.894;4.622;2023-02-28T04:51:41;3.30;99.90
38500;DHT22;24269;51.894;4.622;2023-02-28T04:54:07;3.40;99.90
38500;DHT22;24269;51.894;4.622;2023-02-28T04:56:33;3.40;99.90
38500;DHT22;24269;51.894;4.622;2023-02-28T04:58:59;3.40;99.90
38500;DHT22;24269;51.894;4.622;2023-02-28T05:01:25;3.40;99.90
38500;DHT22;24269;51.894;4.622;2023-02-28T05:03:53;3.30;99.90
38500;DHT22;24269;51.894;4.622;2023-02-28T05:06:20;3.40;99.90
38500;DHT22;24269;51.894;4.622;2023-02-28T05:08:46;3.40;99.90
38500;DHT22;24269;51.894;4.622;2023-02-28T05:11:23;3.40;99.90
38500;DHT22;24269;51.894;4.622;2023-02-28T05:13:50;3.40;99.90
38500;DHT22;24269;51.894;4.622;2023-02-28T05:16:16;3.40;99.90
38500;DHT22;24269;51.894;4.622;2023-02-28T05:18:42;3.40;99.90
38500;DHT22;24269;51.894;4.622;2023-02-28T05:21:30;3.40;99.90
38500;DHT22;24269;51.894;4.622;2023-02-28T05:24:00;3.40;99.90
38500;DHT22;24269;51.894;4.622;2023-02-28T05:26:26;3.40;99.90
38500;DHT22;24269;51.894;4.622;2023-02-28T05:28:53;3.40;99.90
38500;DHT22;24269;51.894;4.622;2023-02-28T05:31:20;3.40;99.90
38500;DHT22;24269;51.894;4.622;2023-02-28T05:33:46;3.40;99.90
38500;DHT22;24269;51.894;4.622;2023-02-28T05:36:12;3.40;99.90
38500;DHT22;24269;51.894;4.622;2023-02-28T05:38:38;3.40;99.90
38500;DHT22;24269;51.894;4.622;2023-02-28T05:41:10;3.40;99.90
38500;DHT22;24269;51.894;4.622;2023-02-28T05:43:37;3.40;99.90
38500;DHT22;24269;51.894;4.622;2023-02-28T05:46:07;3.40;99.90
38500;DHT22;24269;51.894;4.622;2023-02-28T05:48:34;3.40;99.90
38500;DHT22;24269;51.894;4.622;2023-02-28T05:51:01;3.40;99.90
38500;DHT22;24269;51.894;4.622;2023-02-28T05:53:28;3.40;99.90
38500;DHT22;24269;51.894;4.622;2023-02-28T05:55:53;3.40;99.90
38500;DHT22;24269;51.894;4.622;2023-02-28T05:58:19;3.40;99.90
38500;DHT22;24269;51.894;4.622;2023-02-28T06:00:45;3.40;99.90
38500;DHT22;24269;51.894;4.622;2023-02-28T06:03:11;3.30;99.90
38500;DHT22;24269;51.894;4.622;2023-02-28T06:05:36;3.30;99.90
38500;DHT22;24269;51.894;4.622;2023-02-28T06:08:04;3.30;99.90
38500;DHT22;24269;51.894;4.622;2023-02-28T06:10:34;3.20;99.90
38500;DHT22;24269;51.894;4.622;2023-02-28T06:13:01;3.20;99.90
38500;DHT22;24269;51.894;4.622;2023-02-28T06:15:31;3.30;99.90
38500;DHT22;24269;51.894;4.622;2023-02-28T06:17:57;3.20;99.90
38500;DHT22;24269;51.894;4.622;2023-02-28T06:20:23;3.20;99.90
38500;DHT22;24269;51.894;4.622;2023-02-28T06:22:49;3.30;99.90
38500;DHT22;24269;51.894;4.622;2023-02-28T06:25:17;3.20;99.90
38500;DHT22;24269;51.894;4.622;2023-02-28T06:27:43;3.20;99.90
38500;DHT22;24269;51.894;4.622;2023-02-28T06:30:10;3.20;99.90
38500;DHT22;24269;51.894;4.622;2023-02-28T06:32:35;3.10;99.90
38500;DHT22;24269;51.894;4.622;2023-02-28T06:35:02;3.10;99.90
38500;DHT22;24269;51.894;4.622;2023-02-28T06:37:27;3.10;99.90
38500;DHT22;24269;51.894;4.622;2023-02-28T06:39:54;3.00;99.90
38500;DHT22;24269;51.894;4.622;2023-02-28T06:42:22;3.00;99.90
38500;DHT22;24269;51.894;4.622;2023-02-28T06:44:50;3.00;99.90
38500;DHT22;24269;51.894;4.622;2023-02-28T06:47:16;2.90;99.90
38500;DHT22;24269;51.894;4.622;2023-02-28T06:49:41;2.90;99.90
38500;DHT22;24269;51.894;4.622;2023-02-28T06:52:07;2.90;99.90
38500;DHT22;24269;51.894;4.622;2023-02-28T06:54:34;2.80;99.90
38500;DHT22;24269;51.894;4.622;2023-02-28T06:56:59;2.80;99.90
38500;DHT22;24269;51.894;4.622;2023-02-28T06:59:25;2.70;99.90
38500;DHT22;24269;51.894;4.622;2023-02-28T07:01:51;2.60;99.90
38500;DHT22;24269;51.894;4.622;2023-02-28T07:04:17;2.50;99.90
38500;DHT22;24269;51.894;4.622;2023-02-28T07:06:42;2.50;99.90
38500;DHT22;24269;51.894;4.622;2023-02-28T07:09:08;2.50;99.90
38500;DHT22;24269;51.894;4.622;2023-02-28T07:11:34;2.50;99.90
38500;DHT22;24269;51.894;4.622;2023-02-28T07:13:59;2.40;99.90
38500;DHT22;24269;51.894;4.622;2023-02-28T07:16:26;2.30;99.90
38500;DHT22;24269;51.894;4.622;2023-02-28T07:18:54;2.30;99.90
38500;DHT22;24269;51.894;4.622;2023-02-28T07:21:20;2.30;99.90
38500;DHT22;24269;51.894;4.622;2023-02-28T07:23:46;2.20;99.90
38500;DHT22;24269;51.894;4.622;2023-02-28T07:26:14;2.20;99.90
38500;DHT22;24269;51.894;4.622;2023-02-28T07:28:41;2.20;99.90
38500;DHT22;24269;51.894;4.622;2023-02-28T07:31:08;2.20;99.90
38500;DHT22;24269;51.894;4.622;2023-02-28T07:33:34;2.20;99.90
38500;DHT22;24269;51.894;4.622;2023-02-28T07:36:06;2.20;99.90
38500;DHT22;24269;51.894;4.622;2023-02-28T07:38:34;2.20;99.90
38500;DHT22;24269;51.894;4.622;2023-02-28T07:41:01;2.20;99.90
38500;DHT22;24269;51.894;4.622;2023-02-28T07:43:30;2.20;99.90
38500;DHT22;24269;51.894;4.622;2023-02-28T07:46:00;2.20;99.90
38500;DHT22;24269;51.894;4.622;2023-02-28T07:48:26;2.20;99.90
38500;DHT22;24269;51.894;4.622;2023-02-28T07:50:56;2.20;99.90
38500;DHT22;24269;51.894;4.622;2023-02-28T07:53:22;2.20;99.90
38500;DHT22;24269;51.894;4.622;2023-02-28T07:55:48;2.20;99.90
38500;DHT22;24269;51.894;4.622;2023-02-28T07:58:13;2.20;99.90
38500;DHT22;24269;51.894;4.622;2023-02-28T08:00:39;2.20;99.90
38500;DHT22;24269;51.894;4.622;2023-02-28T08:03:04;2.30;99.90
38500;DHT22;24269;51.894;4.622;2023-02-28T08:05:30;2.30;99.90
38500;DHT22;24269;51.894;4.622;2023-02-28T08:07:56;2.40;99.90
38500;DHT22;24269;51.894;4.622;2023-02-28T08:10:22;2.50;99.90
38500;DHT22;24269;51.894;4.622;2023-02-28T08:12:49;2.50;99.90
38500;DHT22;24269;51.894;4.622;2023-02-28T08:15:15;2.50;99.90
38500;DHT22;24269;51.894;4.622;2023-02-28T08:17:41;2.50;99.90
38500;DHT22;24269;51.894;4.622;2023-02-28T08:20:08;2.50;99.90
38500;DHT22;24269;51.894;4.622;2023-02-28T08:22:35;2.50;99.90
38500;DHT22;24269;51.894;4.622;2023-02-28T08:25:01;2.50;99.90
38500;DHT22;24269;51.894;4.622;2023-02-28T08:27:26;2.50;99.90
38500;DHT22;24269;51.894;4.622;2023-02-28T08:29:52;2.50;99.90
38500;DHT22;24269;51.894;4.622;2023-02-28T08:32:18;2.50;99.90
38500;DHT22;24269;51.894;4.622;2023-02-28T08:34:44;2.60;99.90
38500;DHT22;24269;51.894;4.622;2023-02-28T08:37:10;2.70;99.90
38500;DHT22;24269;51.894;4.622;2023-02-28T08:39:36;2.70;99.90
38500;DHT22;24269;51.894;4.622;2023-02-28T08:42:03;2.70;99.90
38500;DHT22;24269;51.894;4.622;2023-02-28T08:44:29;2.70;99.90
38500;DHT22;24269;51.894;4.622;2023-02-28T08:46:54;2.70;99.90
38500;DHT22;24269;51.894;4.622;2023-02-28T08:49:20;2.80;99.90
38500;DHT22;24269;51.894;4.622;2023-02-28T08:51:46;2.80;99.90
38500;DHT22;24269;51.894;4.622;2023-02-28T08:54:11;2.80;99.90
38500;DHT22;24269;51.894;4.622;2023-02-28T08:56:38;2.80;99.90
38500;DHT22;24269;51.894;4.622;2023-02-28T08:59:04;2.80;99.90
38500;DHT22;24269;51.894;4.622;2023-02-28T09:01:30;2.90;99.90
38500;DHT22;24269;51.894;4.622;2023-02-28T09:03:58;2.90;99.90
38500;DHT22;24269;51.894;4.622;2023-02-28T09:06:26;2.90;99.90
38500;DHT22;24269;51.894;4.622;2023-02-28T09:08:55;2.90;99.90
38500;DHT22;24269;51.894;4.622;2023-02-28T09:11:22;3.00;99.90
38500;DHT22;24269;51.894;4.622;2023-02-28T09:13:47;3.10;99.90
38500;DHT22;24269;51.894;4.622;2023-02-28T09:16:14;3.10;99.90
38500;DHT22;24269;51.894;4.622;2023-02-28T09:18:41;3.20;99.90
38500;DHT22;24269;51.894;4.622;2023-02-28T09:21:09;3.20;99.90
38500;DHT22;24269;51.894;4.622;2023-02-28T09:23:36;3.20;99.90
38500;DHT22;24269;51.894;4.622;2023-02-28T09:26:04;3.20;99.90
38500;DHT22;24269;51.894;4.622;2023-02-28T09:28:30;3.20;99.90
38500;DHT22;24269;51.894;4.622;2023-02-28T09:30:55;3.20;99.90
38500;DHT22;24269;51.894;4.622;2023-02-28T09:33:22;3.20;99.90
38500;DHT22;24269;51.894;4.622;2023-02-28T09:35:49;3.20;99.90
38500;DHT22;24269;51.894;4.622;2023-02-28T09:38:15;3.20;99.90
38500;DHT22;24269;51.894;4.622;2023-02-28T09:40:49;3.20;99.90
38500;DHT22;24269;51.894;4.622;2023-02-28T09:43:16;3.10;99.90
38500;DHT22;24269;51.894;4.622;2023-02-28T09:45:48;3.20;99.90
38500;DHT22;24269;51.894;4.622;2023-02-28T09:48:19;3.20;99.90
38500;DHT22;24269;51.894;4.622;2023-02-28T09:51:00;3.20;99.90
38500;DHT22;24269;51.894;4.622;2023-02-28T09:53:28;3.20;99.90
38500;DHT22;24269;51.894;4.622;2023-02-28T09:56:20;3.30;99.90
38500;DHT22;24269;51.894;4.622;2023-02-28T10:01:25;3.30;99.90
38500;DHT22;24269;51.894;4.622;2023-02-28T10:04:00;3.40;99.90
38500;DHT22;24269;51.894;4.622;2023-02-28T10:06:34;3.50;99.90
38500;DHT22;24269;51.894;4.622;2023-02-28T10:11:42;3.60;99.90
38500;DHT22;24269;51.894;4.622;2023-02-28T10:14:21;3.70;99.90
38500;DHT22;24269;51.894;4.622;2023-02-28T10:16:59;3.80;99.90
38500;DHT22;24269;51.894;4.622;2023-02-28T10:22:34;3.90;99.90
38500;DHT22;24269;51.894;4.622;2023-02-28T10:25:01;4.00;99.90
38500;DHT22;24269;51.894;4.622;2023-02-28T10:27:31;4.00;99.90
38500;DHT22;24269;51.894;4.622;2023-02-28T10:30:01;4.10;99.90
38500;DHT22;24269;51.894;4.622;2023-02-28T10:32:34;4.30;99.90
38500;DHT22;24269;51.894;4.622;2023-02-28T10:37:38;5.00;99.90
38500;DHT22;24269;51.894;4.622;2023-02-28T10:40:24;5.30;99.90
38500;DHT22;24269;51.894;4.622;2023-02-28T10:43:05;5.50;99.90
38500;DHT22;24269;51.894;4.622;2023-02-28T10:45:32;5.80;99.90
38500;DHT22;24269;51.894;4.622;2023-02-28T10:48:30;5.80;99.90
38500;DHT22;24269;51.894;4.622;2023-02-28T10:50:56;5.90;99.90
38500;DHT22;24269;51.894;4.622;2023-02-28T10:53:37;6.10;99.90
38500;DHT22;24269;51.894;4.622;2023-02-28T10:59:22;6.40;99.90
38500;DHT22;24269;51.894;4.622;2023-02-28T11:01:46;6.60;99.90
38500;DHT22;24269;51.894;4.622;2023-02-28T11:09:45;7.50;99.90
38500;DHT22;24269;51.894;4.622;2023-02-28T11:12:36;7.50;99.90
38500;DHT22;24269;51.894;4.622;2023-02-28T11:15:34;7.60;99.90
38500;DHT22;24269;51.894;4.622;2023-02-28T11:20:39;7.60;99.90
38500;DHT22;24269;51.894;4.622;2023-02-28T11:23:06;7.50;99.90
38500;DHT22;24269;51.894;4.622;2023-02-28T11:25:37;7.30;99.90
38500;DHT22;24269;51.894;4.622;2023-02-28T11:28:06;7.10;99.90
38500;DHT22;24269;51.894;4.622;2023-02-28T11:31:04;6.70;99.90
38500;DHT22;24269;51.894;4.622;2023-02-28T11:33:52;6.60;99.90
38500;DHT22;24269;51.894;4.622;2023-02-28T11:36:30;6.40;99.90
38500;DHT22;24269;51.894;4.622;2023-02-28T11:39:03;6.50;99.90
38500;DHT22;24269;51.894;4.622;2023-02-28T11:45:22;7.20;99.90
38500;DHT22;24269;51.894;4.622;2023-02-28T11:53:00;8.40;99.90
38500;DHT22;24269;51.894;4.622;2023-02-28T11:55:37;8.60;99.90
38500;DHT22;24269;51.894;4.622;2023-02-28T12:06:56;8.60;99.90
38500;DHT22;24269;51.894;4.622;2023-02-28T12:15:11;9.00;99.90
38500;DHT22;24269;51.894;4.622;2023-02-28T12:26:42;8.80;99.90
38500;DHT22;24269;51.894;4.622;2023-02-28T12:32:14;9.40;99.90
38500;DHT22;24269;51.894;4.622;2023-02-28T12:34:46;9.30;99.90
38500;DHT22;24269;51.894;4.622;2023-02-28T12:37:25;9.50;99.90
38500;DHT22;24269;51.894;4.622;2023-02-28T12:40:00;9.70;99.90
38500;DHT22;24269;51.894;4.622;2023-02-28T12:42:27;10.00;99.40
38500;DHT22;24269;51.894;4.622;2023-02-28T12:45:08;10.10;98.90
38500;DHT22;24269;51.894;4.622;2023-02-28T12:47:35;10.20;97.00
38500;DHT22;24269;51.894;4.622;2023-02-28T12:50:08;9.80;98.90
38500;DHT22;24269;51.894;4.622;2023-02-28T13:09:40;9.80;97.20
38500;DHT22;24269;51.894;4.622;2023-02-28T13:12:16;9.40;97.00
38500;DHT22;24269;51.894;4.622;2023-02-28T13:14:42;9.40;96.50
38500;DHT22;24269;51.894;4.622;2023-02-28T13:28:12;9.80;97.10
38500;DHT22;24269;51.894;4.622;2023-02-28T13:38:48;9.70;96.50
38500;DHT22;24269;51.894;4.622;2023-02-28T13:44:04;9.70;97.00
38500;DHT22;24269;51.894;4.622;2023-02-28T13:46:33;9.80;97.10
38500;DHT22;24269;51.894;4.622;2023-02-28T14:00:23;9.20;96.20
38500;DHT22;24269;51.894;4.622;2023-02-28T14:05:25;9.50;96.80
38500;DHT22;24269;51.894;4.622;2023-02-28T14:07:57;10.00;97.30
38500;DHT22;24269;51.894;4.622;2023-02-28T14:10:33;10.10;94.00
38500;DHT22;24269;51.894;4.622;2023-02-28T14:13:36;10.00;95.10
38500;DHT22;24269;51.894;4.622;2023-02-28T14:16:04;10.20;95.00
38500;DHT22;24269;51.894;4.622;2023-02-28T14:21:24;11.20;94.00
38500;DHT22;24269;51.894;4.622;2023-02-28T14:27:19;11.60;93.60
38500;DHT22;24269;51.894;4.622;2023-02-28T14:32:41;12.00;92.20
38500;DHT22;24269;51.894;4.622;2023-02-28T14:37:44;12.80;91.60
38500;DHT22;24269;51.894;4.622;2023-02-28T14:40:30;13.10;90.60
38500;DHT22;24269;51.894;4.622;2023-02-28T14:43:04;13.00;89.80
38500;DHT22;24269;51.894;4.622;2023-02-28T14:45:33;13.00;89.00
38500;DHT22;24269;51.894;4.622;2023-02-28T14:48:01;13.20;90.00
38500;DHT22;24269;51.894;4.622;2023-02-28T14:50:36;13.50;88.50
38500;DHT22;24269;51.894;4.622;2023-02-28T14:53:03;13.70;88.20
38500;DHT22;24269;51.894;4.622;2023-02-28T14:55:34;13.40;86.10
38500;DHT22;24269;51.894;4.622;2023-02-28T14:58:05;12.50;88.00
38500;DHT22;24269;51.894;4.622;2023-02-28T15:00:32;11.10;89.10
38500;DHT22;24269;51.894;4.622;2023-02-28T15:03:00;10.80;90.80
38500;DHT22;24269;51.894;4.622;2023-02-28T15:05:30;10.40;90.40
38500;DHT22;24269;51.894;4.622;2023-02-28T15:08:12;9.80;92.10
38500;DHT22;24269;51.894;4.622;2023-02-28T15:10:44;9.70;92.00
38500;DHT22;24269;51.894;4.622;2023-02-28T15:13:13;9.30;91.90
38500;DHT22;24269;51.894;4.622;2023-02-28T15:15:41;8.70;93.10
38500;DHT22;24269;51.894;4.622;2023-02-28T15:18:31;8.10;93.40
38500;DHT22;24269;51.894;4.622;2023-02-28T15:21:02;7.80;94.20
38500;DHT22;24269;51.894;4.622;2023-02-28T15:23:30;7.60;93.70
38500;DHT22;24269;51.894;4.622;2023-02-28T15:25:57;7.40;94.30
38500;DHT22;24269;51.894;4.622;2023-02-28T15:28:24;7.30;94.60
38500;DHT22;24269;51.894;4.622;2023-02-28T15:31:01;7.20;96.20
38500;DHT22;24269;51.894;4.622;2023-02-28T15:33:32;7.10;94.90
38500;DHT22;24269;51.894;4.622;2023-02-28T15:36:13;7.00;95.30
38500;DHT22;24269;51.894;4.622;2023-02-28T15:38:39;6.90;95.80
38500;DHT22;24269;51.894;4.622;2023-02-28T15:41:05;6.90;95.70
38500;DHT22;24269;51.894;4.622;2023-02-28T15:43:38;6.90;95.40
38500;DHT22;24269;51.894;4.622;2023-02-28T15:46:12;6.80;95.80
38500;DHT22;24269;51.894;4.622;2023-02-28T15:48:53;6.70;96.20
38500;DHT22;24269;51.894;4.622;2023-02-28T15:51:32;6.70;96.60
38500;DHT22;24269;51.894;4.622;2023-02-28T15:54:04;6.70;96.10
38500;DHT22;24269;51.894;4.622;2023-02-28T15:56:33;6.60;96.50
38500;DHT22;24269;51.894;4.622;2023-02-28T15:59:07;6.50;96.80
38500;DHT22;24269;51.894;4.622;2023-02-28T16:01:39;6.50;97.10
38500;DHT22;24269;51.894;4.622;2023-02-28T16:04:12;6.50;97.30
38500;DHT22;24269;51.894;4.622;2023-02-28T16:06:44;6.50;96.80
38500;DHT22;24269;51.894;4.622;2023-02-28T16:09:15;6.40;96.70
38500;DHT22;24269;51.894;4.622;2023-02-28T16:11:45;6.40;97.30
38500;DHT22;24269;51.894;4.622;2023-02-28T16:14:19;6.40;97.30
38500;DHT22;24269;51.894;4.622;2023-02-28T16:16:48;6.40;96.90
38500;DHT22;24269;51.894;4.622;2023-02-28T16:19:14;6.40;97.50
38500;DHT22;24269;51.894;4.622;2023-02-28T16:21:39;6.30;97.70
38500;DHT22;24269;51.894;4.622;2023-02-28T16:24:06;6.30;98.00
38500;DHT22;24269;51.894;4.622;2023-02-28T16:26:32;6.20;98.20
38500;DHT22;24269;51.894;4.622;2023-02-28T16:29:00;6.20;97.80
38500;DHT22;24269;51.894;4.622;2023-02-28T16:31:26;6.10;98.30
38500;DHT22;24269;51.894;4.622;2023-02-28T16:33:52;6.10;98.40
38500;DHT22;24269;51.894;4.622;2023-02-28T16:36:21;6.00;99.20
38500;DHT22;24269;51.894;4.622;2023-02-28T16:38:50;6.00;98.70
38500;DHT22;24269;51.894;4.622;2023-02-28T16:41:21;6.00;98.70
38500;DHT22;24269;51.894;4.622;2023-02-28T16:43:50;5.90;98.90
38500;DHT22;24269;51.894;4.622;2023-02-28T16:46:17;5.80;99.20
38500;DHT22;24269;51.894;4.622;2023-02-28T16:48:46;5.80;99.90
38500;DHT22;24269;51.894;4.622;2023-02-28T16:51:15;5.70;99.90
38500;DHT22;24269;51.894;4.622;2023-02-28T16:53:41;5.60;99.90
38500;DHT22;24269;51.894;4.622;2023-02-28T16:56:23;5.60;99.90
38500;DHT22;24269;51.894;4.622;2023-02-28T16:58:50;5.60;99.90
38500;DHT22;24269;51.894;4.622;2023-02-28T17:01:17;5.50;99.90
38500;DHT22;24269;51.894;4.622;2023-02-28T17:03:46;5.40;99.90
38500;DHT22;24269;51.894;4.622;2023-02-28T17:06:30;5.30;99.90
38500;DHT22;24269;51.894;4.622;2023-02-28T17:08:57;5.20;99.90
38500;DHT22;24269;51.894;4.622;2023-02-28T17:11:24;5.10;99.90
38500;DHT22;24269;51.894;4.622;2023-02-28T17:13:50;5.10;99.90
38500;DHT22;24269;51.894;4.622;2023-02-28T17:18:56;5.00;99.90
38500;DHT22;24269;51.894;4.622;2023-02-28T17:21:22;4.90;99.90
38500;DHT22;24269;51.894;4.622;2023-02-28T17:23:51;4.80;99.90
38500;DHT22;24269;51.894;4.622;2023-02-28T17:26:18;4.70;99.90
38500;DHT22;24269;51.894;4.622;2023-02-28T17:28:48;4.70;99.90
38500;DHT22;24269;51.894;4.622;2023-02-28T17:31:14;4.60;99.90
38500;DHT22;24269;51.894;4.622;2023-02-28T17:33:40;4.50;99.90
38500;DHT22;24269;51.894;4.622;2023-02-28T17:36:08;4.40;99.90
38500;DHT22;24269;51.894;4.622;2023-02-28T17:38:35;4.40;99.90
38500;DHT22;24269;51.894;4.622;2023-02-28T17:41:01;4.40;99.90
38500;DHT22;24269;51.894;4.622;2023-02-28T17:43:27;4.30;99.90
38500;DHT22;24269;51.894;4.622;2023-02-28T17:45:53;4.30;99.90
38500;DHT22;24269;51.894;4.622;2023-02-28T17:48:19;4.30;99.90
38500;DHT22;24269;51.894;4.622;2023-02-28T17:50:45;4.20;99.90
38500;DHT22;24269;51.894;4.622;2023-02-28T17:53:11;4.20;99.90
38500;DHT22;24269;51.894;4.622;2023-02-28T17:55:36;4.10;99.90
38500;DHT22;24269;51.894;4.622;2023-02-28T17:58:03;4.10;99.90
38500;DHT22;24269;51.894;4.622;2023-02-28T18:00:29;4.00;99.90
38500;DHT22;24269;51.894;4.622;2023-02-28T18:02:54;4.00;99.90
38500;DHT22;24269;51.894;4.622;2023-02-28T18:05:20;4.00;99.90
38500;DHT22;24269;51.894;4.622;2023-02-28T18:07:45;3.90;99.90
38500;DHT22;24269;51.894;4.622;2023-02-28T18:10:17;3.90;99.90
38500;DHT22;24269;51.894;4.622;2023-02-28T18:12:46;3.80;99.90
38500;DHT22;24269;51.894;4.622;2023-02-28T18:15:11;3.80;99.90
38500;DHT22;24269;51.894;4.622;2023-02-28T18:17:37;3.70;99.90
38500;DHT22;24269;51.894;4.622;2023-02-28T18:20:03;3.70;99.90
38500;DHT22;24269;51.894;4.622;2023-02-28T18:22:30;3.60;99.90
38500;DHT22;24269;51.894;4.622;2023-02-28T18:24:55;3.60;99.90
38500;DHT22;24269;51.894;4.622;2023-02-28T18:27:21;3.50;99.90
38500;DHT22;24269;51.894;4.622;2023-02-28T18:29:47;3.40;99.90
38500;DHT22;24269;51.894;4.622;2023-02-28T18:32:13;3.40;99.90
38500;DHT22;24269;51.894;4.622;2023-02-28T18:34:39;3.30;99.90
38500;DHT22;24269;51.894;4.622;2023-02-28T18:37:05;3.20;99.90
38500;DHT22;24269;51.894;4.622;2023-02-28T18:39:31;3.20;99.90
38500;DHT22;24269;51.894;4.622;2023-02-28T18:41:57;3.20;99.90
38500;DHT22;24269;51.894;4.622;2023-02-28T18:44:22;3.10;99.90
38500;DHT22;24269;51.894;4.622;2023-02-28T18:46:49;3.10;99.90